Time;durP1;ratioP1;P1;durP2;ratioP2;P2;SDS_P1;SDS_P2;PMS_P1;PMS_P2;Temp;Humidity;BMP_temperature;BMP_pressure;BME280_temperature;BME280_humidity;BME280_pressure;Samples;Min_cycle;Max_cycle;Signal;HPM_P1;HPM_P2
2022/10/01 00:01:55;;;;;;;14.15;11.38;;;;;;;6.36;100.00;100238.06;4907411;29;20040;-72
2022/10/01 00:04:20;;;;;;;17.17;11.43;;;;;;;6.30;100.00;100231.03;4912041;29;20038;-72
2022/10/01 00:06:46;;;;;;;13.68;11.20;;;;;;;6.29;100.00;100231.06;4906955;29;20036;-72
2022/10/01 00:09:11;;;;;;;15.15;12.05;;;;;;;6.27;100.00;100235.41;4909389;29;20040;-71
2022/10/01 00:11:37;;;;;;;13.88;12.00;;;;;;;6.22;100.00;100227.50;4911205;29;20076;-72
2022/10/01 00:14:02;;;;;;;20.10;11.68;;;;;;;6.21;100.00;100224.84;4913304;29;20099;-71
2022/10/01 00:16:29;;;;;;;12.85;10.43;;;;;;;6.18;100.00;100220.47;4910104;29;20036;-72
2022/10/01 00:18:55;;;;;;;14.27;12.18;;;;;;;6.15;100.00;100216.09;4914631;29;20040;-72
2022/10/01 00:21:25;;;;;;;14.93;11.50;;;;;;;6.14;100.00;100227.44;4924652;29;20136;-71
2022/10/01 00:23:55;;;;;;;14.10;10.63;;;;;;;6.14;100.00;100230.06;4910791;29;20115;-71
2022/10/01 00:26:26;;;;;;;13.10;10.07;;;;;;;6.10;100.00;100232.66;4909010;29;20059;-72
2022/10/01 00:28:56;;;;;;;14.23;10.38;;;;;;;6.03;100.00;100230.88;4914446;29;20032;-71
2022/10/01 00:31:22;;;;;;;14.23;10.43;;;;;;;6.01;100.00;100230.84;4908574;29;20075;-72
2022/10/01 00:33:50;;;;;;;17.55;10.45;;;;;;;6.01;100.00;100229.97;4908239;29;20176;-72
2022/10/01 00:36:15;;;;;;;11.63;8.77;;;;;;;5.97;100.00;100226.44;4909332;29;20076;-71
2022/10/01 00:38:41;;;;;;;10.38;9.18;;;;;;;5.94;100.00;100229.03;4912955;29;20062;-71
2022/10/01 00:41:07;;;;;;;11.60;8.95;;;;;;;5.88;100.00;100227.22;4907234;29;20092;-72
2022/10/01 00:43:36;;;;;;;13.52;11.60;;;;;;;5.83;100.00;100225.44;4926663;29;20522;-71
2022/10/01 00:46:09;;;;;;;12.30;10.68;;;;;;;5.74;100.00;100228.88;4908204;29;20048;-72
2022/10/01 00:48:44;;;;;;;12.80;9.40;;;;;;;5.74;100.00;100227.97;4910365;29;20051;-71
2022/10/01 00:51:10;;;;;;;14.13;10.70;;;;;;;5.65;100.00;100229.63;4907911;29;20040;-72
2022/10/01 00:53:36;;;;;;;15.40;11.25;;;;;;;5.62;100.00;100227.00;4914375;29;20052;-71
2022/10/01 00:56:02;;;;;;;13.30;10.77;;;;;;;5.60;100.00;100230.47;4907194;29;20044;-71
2022/10/01 00:58:27;;;;;;;17.33;10.48;;;;;;;5.58;100.00;100222.63;4909097;29;20039;-72
2022/10/01 01:00:54;;;;;;;12.45;9.07;;;;;;;5.57;100.00;100225.19;4910239;29;20037;-71
2022/10/01 01:03:20;;;;;;;14.65;10.43;;;;;;;5.55;100.00;100233.03;4910988;29;20044;-71
2022/10/01 01:05:46;;;;;;;13.68;9.25;;;;;;;5.51;100.00;100220.78;4907650;29;20095;-71
2022/10/01 01:08:13;;;;;;;13.60;9.65;;;;;;;5.51;100.00;100220.78;4912566;29;20257;-71
2022/10/01 01:11:20;;;;;;;14.50;11.95;;;;;;;5.49;100.00;100226.00;4908840;29;20049;-71
2022/10/01 01:14:05;;;;;;;12.40;8.77;;;;;;;5.42;100.00;100221.59;4906957;29;20047;-71
2022/10/01 01:16:48;;;;;;;11.30;10.07;;;;;;;5.39;100.00;100216.31;4909857;29;20466;-71
2022/10/01 01:19:42;;;;;;;13.68;10.63;;;;;;;5.38;100.00;100214.56;4911194;29;20119;-72
2022/10/01 01:22:12;;;;;;;12.27;9.30;;;;;;;5.40;100.00;100209.34;4906411;29;20040;-71
2022/10/01 01:24:56;;;;;;;11.63;9.43;;;;;;;5.41;100.00;100200.63;4913772;29;20079;-72
2022/10/01 01:27:32;;;;;;;12.77;9.68;;;;;;;5.39;100.00;100204.97;4906669;29;20123;-71
2022/10/01 01:30:07;;;;;;;10.00;9.00;;;;;;;5.33;100.00;100205.78;4905726;29;20047;-72
2022/10/01 01:33:02;;;;;;;13.07;10.13;;;;;;;5.30;100.00;100199.66;4911439;29;20043;-72
2022/10/01 01:35:41;;;;;;;10.15;8.73;;;;;;;5.31;100.00;100193.53;4909293;29;20107;-72
2022/10/01 01:38:12;;;;;;;13.18;10.13;;;;;;;5.28;100.00;100197.88;4907637;29;20040;-72
2022/10/01 01:40:40;;;;;;;15.73;10.40;;;;;;;5.29;100.00;100193.53;4910875;29;20095;-72
2022/10/01 01:43:14;;;;;;;11.02;9.00;;;;;;;5.28;100.00;100200.50;4908263;29;20328;-72
2022/10/01 01:45:41;;;;;;;9.73;8.15;;;;;;;5.25;100.00;100192.63;4907549;29;20055;-71
2022/10/01 01:48:08;;;;;;;10.82;8.65;;;;;;;5.20;100.00;100191.69;4911737;29;20039;-71
2022/10/01 01:50:42;;;;;;;12.90;8.77;;;;;;;5.20;100.00;100193.44;4909474;29;20436;-72
2022/10/01 01:53:08;;;;;;;11.98;9.07;;;;;;;5.18;100.00;100189.94;4908117;29;20052;-72
2022/10/01 01:55:35;;;;;;;11.50;8.30;;;;;;;5.19;100.00;100189.94;4908083;29;20032;-71
2022/10/01 01:58:01;;;;;;;13.50;9.00;;;;;;;5.15;100.00;100180.31;4908467;29;20506;-72
2022/10/01 02:00:27;;;;;;;11.18;8.75;;;;;;;5.13;100.00;100182.03;4907406;29;20036;-71
2022/10/01 02:02:55;;;;;;;10.50;8.90;;;;;;;5.15;100.00;100182.91;4908993;29;20106;-71
2022/10/01 02:05:25;;;;;;;10.35;9.10;;;;;;;5.17;100.00;100182.94;4925258;29;20044;-72
2022/10/01 02:08:03;;;;;;;11.45;8.90;;;;;;;5.15;100.00;100172.47;4905891;29;20483;-72
2022/10/01 02:11:20;;;;;;;11.10;9.10;;;;;;;5.18;100.00;100175.09;4903590;29;20517;-72
2022/10/01 02:14:06;;;;;;;9.02;8.07;;;;;;;5.16;100.00;100181.19;4897173;29;20135;-72
2022/10/01 02:16:46;;;;;;;9.20;7.35;;;;;;;5.12;100.00;100169.81;4903436;29;20052;-71
2022/10/01 02:19:35;;;;;;;8.98;7.95;;;;;;;5.11;100.00;100168.06;4914499;29;20059;-72
2022/10/01 02:22:08;;;;;;;11.05;9.45;;;;;;;5.14;100.00;100170.72;4905118;29;20491;-72
2022/10/01 02:24:56;;;;;;;10.32;8.75;;;;;;;5.20;100.00;100162.91;4911255;29;20040;-72
2022/10/01 02:28:01;;;;;;;10.70;8.02;;;;;;;5.25;100.00;100158.59;4911167;29;20376;-72
2022/10/01 02:30:30;;;;;;;9.55;8.02;;;;;;;5.23;100.00;100164.69;4909503;29;20040;-72
2022/10/01 02:32:59;;;;;;;12.95;9.02;;;;;;;5.20;100.00;100167.28;4905458;29;20064;-72
2022/10/01 02:35:26;;;;;;;13.02;8.98;;;;;;;5.14;100.00;100165.50;4911929;29;20458;-72
2022/10/01 02:37:55;;;;;;;11.70;8.45;;;;;;;5.11;100.00;100160.22;4907342;29;20384;-72
2022/10/01 02:40:25;;;;;;;13.57;9.20;;;;;;;5.12;100.00;100164.59;4907748;29;20051;-72
2022/10/01 02:42:55;;;;;;;8.27;7.05;;;;;;;5.14;100.00;100160.25;4911529;29;20044;-72
2022/10/01 02:45:23;;;;;;;14.23;8.50;;;;;;;5.15;100.00;100164.63;4909303;29;20039;-72
2022/10/01 02:47:57;;;;;;;9.95;7.32;;;;;;;5.18;100.00;100158.53;4905370;29;20123;-72
2022/10/01 02:50:29;;;;;;;11.93;9.02;;;;;;;5.13;100.00;100157.59;4909006;29;20040;-72
2022/10/01 02:53:01;;;;;;;12.63;8.45;;;;;;;5.14;100.00;100160.25;4908562;29;20040;-72
2022/10/01 02:55:31;;;;;;;11.77;8.65;;;;;;;5.09;100.00;100148.00;4910082;29;20100;-72
2022/10/01 02:57:57;;;;;;;7.80;7.00;;;;;;;5.05;100.00;100149.69;4908482;29;20107;-72
2022/10/01 03:00:24;;;;;;;8.68;7.40;;;;;;;5.06;100.00;100148.84;4911045;29;20500;-72
2022/10/01 03:02:49;;;;;;;10.15;7.05;;;;;;;5.05;100.00;100147.94;4905992;29;20044;-72
2022/10/01 03:05:16;;;;;;;8.90;6.63;;;;;;;5.03;100.00;100149.69;4906467;29;20036;-71
2022/10/01 03:07:42;;;;;;;8.57;7.35;;;;;;;5.03;100.00;100148.78;4910692;29;20127;-72
2022/10/01 03:10:09;;;;;;;11.70;7.88;;;;;;;5.05;100.00;100152.31;4909214;29;20063;-71
2022/10/01 03:12:35;;;;;;;13.48;7.72;;;;;;;5.05;100.00;100147.06;4912286;29;20119;-71
2022/10/01 03:15:01;;;;;;;8.60;6.78;;;;;;;5.09;100.00;100143.63;4913186;29;20094;-71
2022/10/01 03:17:27;;;;;;;9.13;7.55;;;;;;;5.11;100.00;100147.16;4910534;29;20040;-71
2022/10/01 03:19:52;;;;;;;8.93;7.00;;;;;;;5.16;100.00;100135.00;4910418;29;20052;-71
2022/10/01 03:22:21;;;;;;;8.55;7.32;;;;;;;5.21;100.00;100137.63;4912675;29;20043;-71
2022/10/01 03:24:47;;;;;;;9.38;7.55;;;;;;;5.21;100.00;100133.28;4914431;29;20043;-72
2022/10/01 03:27:13;;;;;;;9.02;7.28;;;;;;;5.20;100.00;100136.75;4907595;29;20052;-72
2022/10/01 03:29:38;;;;;;;8.30;7.43;;;;;;;5.21;100.00;100135.91;4910599;29;20044;-72
2022/10/01 03:32:03;;;;;;;8.63;7.25;;;;;;;5.20;100.00;100131.53;4910213;29;20051;-71
2022/10/01 03:34:29;;;;;;;10.48;6.97;;;;;;;5.24;100.00;100135.94;4913063;29;20035;-71
2022/10/01 03:36:54;;;;;;;9.23;7.35;;;;;;;5.28;100.00;100136.81;4906940;29;20051;-71
2022/10/01 03:39:19;;;;;;;11.20;8.68;;;;;;;5.28;100.00;100131.59;4915289;29;20082;-71
2022/10/01 03:41:45;;;;;;;11.27;7.05;;;;;;;5.38;100.00;100129.94;4909892;29;20040;-71
2022/10/01 03:44:10;;;;;;;9.50;6.97;;;;;;;5.44;100.00;100135.22;4908986;29;20096;-71
2022/10/01 03:46:35;;;;;;;9.43;7.70;;;;;;;5.50;100.00;100130.03;4908519;29;20079;-71
2022/10/01 03:49:01;;;;;;;8.10;6.88;;;;;;;5.56;100.00;100130.09;4911286;29;20513;-72
2022/10/01 03:51:27;;;;;;;9.73;8.20;;;;;;;5.67;100.00;100107.47;4907271;29;20048;-71
2022/10/01 03:53:54;;;;;;;12.63;9.73;;;;;;;5.75;100.00;100114.50;4909974;29;20036;-72
2022/10/01 03:56:19;;;;;;;9.55;8.18;;;;;;;5.80;100.00;100115.41;4909686;29;20035;-71
2022/10/01 03:58:44;;;;;;;11.32;7.88;;;;;;;5.87;100.00;100123.34;4911874;29;20036;-72
2022/10/01 04:01:10;;;;;;;11.32;8.23;;;;;;;5.94;100.00;100121.66;4907458;29;20045;-72
2022/10/01 04:03:35;;;;;;;15.35;8.77;;;;;;;5.97;100.00;100112.94;4915368;29;20119;-72
2022/10/01 04:06:01;;;;;;;11.70;8.48;;;;;;;5.97;100.00;100111.19;4907920;29;20161;-72
2022/10/01 04:08:26;;;;;;;10.35;8.80;;;;;;;5.98;100.00;100112.94;4910047;29;20040;-72
2022/10/01 04:10:51;;;;;;;9.90;7.82;;;;;;;6.00;100.00;100110.31;4909993;29;20052;-72
2022/10/01 04:13:17;;;;;;;9.20;8.20;;;;;;;5.98;100.00;100112.94;4912859;29;20102;-72
2022/10/01 04:15:42;;;;;;;13.00;8.15;;;;;;;5.96;100.00;100114.69;4911398;29;20172;-72
2022/10/01 04:18:08;;;;;;;12.23;8.15;;;;;;;5.98;100.00;100106.84;4914590;29;20032;-72
2022/10/01 04:20:36;;;;;;;10.45;7.55;;;;;;;5.99;100.00;100096.34;4912376;29;20052;-72
2022/10/01 04:23:01;;;;;;;9.10;8.02;;;;;;;6.00;100.00;100105.09;4911375;29;20031;-71
2022/10/01 04:25:28;;;;;;;14.35;8.40;;;;;;;5.97;100.00;100100.69;4913845;29;20042;-71
2022/10/01 04:27:59;;;;;;;9.70;7.97;;;;;;;5.99;100.00;100088.50;4911383;29;20490;-71
2022/10/01 04:30:27;;;;;;;10.05;8.35;;;;;;;6.05;100.00;100092.88;4913654;29;20036;-72
2022/10/01 04:32:52;;;;;;;9.63;7.28;;;;;;;6.14;100.00;100088.56;4914839;29;20044;-71
2022/10/01 04:35:18;;;;;;;8.77;7.70;;;;;;;6.20;100.00;100079.00;4912886;29;20103;-72
2022/10/01 04:37:43;;;;;;;10.07;7.65;;;;;;;6.24;100.00;100084.25;4909562;29;20442;-72
2022/10/01 04:40:12;;;;;;;9.98;7.82;;;;;;;6.23;100.00;100079.00;4913430;29;20040;-71
2022/10/01 04:42:40;;;;;;;8.63;7.72;;;;;;;6.26;100.00;100086.88;4913469;29;20446;-71
2022/10/01 04:45:06;;;;;;;9.15;7.80;;;;;;;6.29;100.00;100086.91;4911169;29;20039;-71
2022/10/01 04:47:31;;;;;;;10.10;7.85;;;;;;;6.26;100.00;100084.25;4912768;29;20036;-71
2022/10/01 04:49:57;;;;;;;12.10;8.23;;;;;;;6.29;100.00;100077.28;4914717;29;20046;-72
2022/10/01 04:52:22;;;;;;;9.43;7.43;;;;;;;6.34;100.00;100083.44;4909125;29;20414;-72
2022/10/01 04:54:48;;;;;;;11.02;8.80;;;;;;;6.32;100.00;100084.28;4911263;29;20042;-71
2022/10/01 04:57:13;;;;;;;15.75;8.18;;;;;;;6.34;100.00;100082.53;4909866;29;20043;-72
2022/10/01 04:59:38;;;;;;;8.30;6.35;;;;;;;6.40;100.00;100079.09;4914554;29;20036;-73
2022/10/01 05:02:03;;;;;;;11.77;8.32;;;;;;;6.42;100.00;100072.97;4902718;29;20172;-72
2022/10/01 05:04:29;;;;;;;8.85;6.80;;;;;;;6.48;100.00;100075.59;4908838;29;20043;-72
2022/10/01 05:06:55;;;;;;;11.20;7.50;;;;;;;6.52;100.00;100071.25;4908410;29;20036;-72
2022/10/01 05:09:20;;;;;;;9.77;8.02;;;;;;;6.52;100.00;100074.75;4910923;29;20067;-72
2022/10/01 05:11:45;;;;;;;11.27;7.80;;;;;;;6.53;100.00;100065.16;4906604;29;20036;-72
2022/10/01 05:14:14;;;;;;;8.20;7.28;;;;;;;6.58;100.00;100072.16;4926736;29;20041;-72
2022/10/01 05:16:39;;;;;;;7.95;7.18;;;;;;;6.72;100.00;100071.31;4908366;29;20554;-72
2022/10/01 05:19:05;;;;;;;7.88;6.90;;;;;;;6.85;100.00;100062.59;4906615;29;20140;-72
2022/10/01 05:21:30;;;;;;;7.43;6.63;;;;;;;7.01;100.00;100055.59;4912550;29;20062;-72
2022/10/01 05:23:56;;;;;;;7.35;6.55;;;;;;;7.14;100.00;100048.63;4912043;29;20533;-72
2022/10/01 05:26:21;;;;;;;9.45;7.63;;;;;;;7.31;100.00;100045.97;4907767;29;20092;-73
2022/10/01 05:28:47;;;;;;;9.70;7.25;;;;;;;7.43;100.00;100038.09;4910566;29;20047;-73
2022/10/01 05:31:12;;;;;;;9.65;6.72;;;;;;;7.59;100.00;100033.69;4907371;29;20032;-73
2022/10/01 05:33:39;;;;;;;8.82;7.25;;;;;;;7.79;100.00;100034.53;4910350;29;20126;-73
2022/10/01 05:36:05;;;;;;;9.73;6.90;;;;;;;7.94;100.00;100038.88;4905746;29;20040;-72
2022/10/01 05:38:35;;;;;;;8.23;6.70;;;;;;;8.07;100.00;100044.97;4913877;29;20387;-73
2022/10/01 05:41:00;;;;;;;6.80;6.10;;;;;;;8.19;100.00;100050.13;4921161;29;20403;-72
2022/10/01 05:43:26;;;;;;;9.45;6.75;;;;;;;8.31;100.00;100044.84;4908804;29;20046;-72
2022/10/01 05:45:51;;;;;;;9.55;6.50;;;;;;;8.42;99.88;100036.06;4906106;29;20135;-72
2022/10/01 05:48:16;;;;;;;8.77;6.80;;;;;;;8.51;99.71;100039.53;4910123;29;20403;-75
2022/10/01 05:50:42;;;;;;;7.60;6.80;;;;;;;8.63;98.85;100035.94;4907961;29;20376;-73
2022/10/01 05:53:10;;;;;;;8.38;6.50;;;;;;;8.73;98.31;100042.88;4908668;29;20099;-73
2022/10/01 05:55:36;;;;;;;7.72;6.60;;;;;;;8.83;97.43;100032.28;4909793;29;20040;-73
2022/10/01 05:58:09;;;;;;;8.65;6.15;;;;;;;8.94;97.18;100030.47;4911518;29;20044;-73
2022/10/01 06:00:35;;;;;;;9.68;6.90;;;;;;;9.02;96.66;100028.66;4906542;29;20071;-73
2022/10/01 06:03:02;;;;;;;6.95;6.35;;;;;;;9.10;96.05;100026.81;4910295;29;20447;-73
2022/10/01 06:05:29;;;;;;;7.25;6.53;;;;;;;9.13;94.89;100016.25;4908496;29;20031;-73
2022/10/01 06:07:55;;;;;;;10.55;6.85;;;;;;;9.14;95.44;100015.41;4908227;29;20080;-73
2022/10/01 06:10:21;;;;;;;7.13;6.30;;;;;;;9.20;95.03;100012.69;4907905;29;20487;-73
2022/10/01 06:12:47;;;;;;;8.73;6.68;;;;;;;9.23;94.30;100006.53;4903827;29;20032;-73
2022/10/01 06:15:13;;;;;;;10.13;6.85;;;;;;;9.29;94.22;100010.88;4907024;29;20048;-73
2022/10/01 06:17:45;;;;;;;7.20;6.50;;;;;;;9.34;93.84;100002.03;4910848;29;20115;-73
2022/10/01 06:20:16;;;;;;;10.02;6.65;;;;;;;9.39;93.80;99994.09;4909965;29;20128;-73
2022/10/01 06:22:42;;;;;;;6.80;6.10;;;;;;;9.48;93.41;99990.47;4903605;29;20123;-73
2022/10/01 06:25:12;;;;;;;8.23;6.95;;;;;;;9.58;93.00;99993.00;4910794;29;20513;-73
2022/10/01 06:27:38;;;;;;;8.02;7.00;;;;;;;9.63;91.34;99998.22;4907627;29;20499;-73
2022/10/01 06:30:04;;;;;;;8.40;6.32;;;;;;;9.77;91.82;99998.06;4906993;29;20124;-73
2022/10/01 06:32:29;;;;;;;8.68;6.65;;;;;;;9.87;91.64;99990.03;4906831;29;20040;-75
2022/10/01 06:34:55;;;;;;;8.75;6.22;;;;;;;9.93;90.53;99990.84;4906142;29;20048;-73
2022/10/01 06:37:20;;;;;;;8.13;6.15;;;;;;;9.98;90.50;99984.66;4905616;29;20379;-73
2022/10/01 06:39:45;;;;;;;9.25;7.05;;;;;;;10.07;90.60;99976.63;4907458;29;20603;-73
2022/10/01 06:42:11;;;;;;;7.68;6.88;;;;;;;10.20;90.46;99976.47;4909888;29;20040;-73
2022/10/01 06:44:36;;;;;;;8.57;7.03;;;;;;;10.31;89.30;99975.44;4910494;29;20040;-73
2022/10/01 06:47:01;;;;;;;7.97;6.70;;;;;;;10.46;88.67;99971.72;4906590;29;20107;-72
2022/10/01 06:49:26;;;;;;;7.65;6.85;;;;;;;10.60;88.13;99962.72;4915066;29;20095;-73
2022/10/01 06:54:36;;;;;;;7.93;7.13;;;;;;;10.82;86.87;99964.16;4908062;29;20499;-73
2022/10/01 06:57:01;;;;;;;7.43;6.57;;;;;;;10.88;85.58;99960.53;4912099;29;20036;-73
2022/10/01 06:59:26;;;;;;;7.93;6.57;;;;;;;10.77;85.85;99957.16;4915759;29;20040;-73
2022/10/01 07:01:52;;;;;;;7.93;6.95;;;;;;;10.87;86.14;99958.75;4910650;29;20055;-73
2022/10/01 07:04:18;;;;;;;7.63;6.90;;;;;;;10.94;85.63;99955.13;4915109;29;20044;-73
2022/10/01 07:06:44;;;;;;;8.10;7.13;;;;;;;10.99;85.33;99952.41;4911589;29;20139;-73
2022/10/01 07:09:09;;;;;;;11.13;7.35;;;;;;;11.05;85.01;99942.59;4910541;29;20151;-74
2022/10/01 07:11:38;;;;;;;7.82;7.13;;;;;;;11.06;83.74;99944.38;4911497;29;20103;-74
2022/10/01 07:14:03;;;;;;;12.25;7.57;;;;;;;11.11;84.69;99939.88;4914740;29;20103;-74
2022/10/01 07:16:28;;;;;;;8.25;7.03;;;;;;;11.19;84.66;99940.59;4910154;29;20043;-74
2022/10/01 07:18:53;;;;;;;7.78;6.97;;;;;;;11.19;83.82;99934.47;4908486;29;20084;-73
2022/10/01 07:21:19;;;;;;;6.88;6.20;;;;;;;11.18;83.81;99932.69;4912918;29;20052;-73
2022/10/01 07:23:44;;;;;;;8.15;7.03;;;;;;;11.18;83.82;99930.06;4910955;29;20056;-73
2022/10/01 07:26:09;;;;;;;7.57;6.70;;;;;;;11.23;84.03;99933.50;4908710;29;20191;-73
2022/10/01 07:28:35;;;;;;;10.23;7.35;;;;;;;11.26;83.65;99933.44;4915504;29;20139;-73
2022/10/01 07:31:06;;;;;;;7.97;7.25;;;;;;;11.25;83.35;99930.84;4909774;29;20049;-73
2022/10/01 07:33:32;;;;;;;8.55;7.38;;;;;;;11.23;83.80;99930.84;4912273;29;20139;-73
2022/10/01 07:36:02;;;;;;;7.93;7.13;;;;;;;11.31;84.25;99923.66;4911881;29;20157;-73
2022/10/01 07:38:28;;;;;;;11.85;7.47;;;;;;;11.38;83.40;99927.91;4903836;29;20582;-73
2022/10/01 07:40:53;;;;;;;8.10;6.88;;;;;;;11.40;83.19;99923.50;4909579;29;20048;-73
2022/10/01 07:43:19;;;;;;;8.25;6.88;;;;;;;11.47;82.77;99926.00;4909527;29;20104;-73
2022/10/01 07:45:48;;;;;;;9.55;7.60;;;;;;;11.46;83.41;99924.28;4914086;29;20451;-73
2022/10/01 07:48:14;;;;;;;9.52;6.93;;;;;;;11.50;82.94;99924.19;4929270;29;20047;-73
2022/10/01 07:50:43;;;;;;;7.05;6.35;;;;;;;11.58;82.24;99921.38;4909584;29;20037;-73
2022/10/01 07:53:10;;;;;;;8.73;7.18;;;;;;;11.66;82.67;99919.47;4913349;29;20044;-73
2022/10/01 07:55:35;;;;;;;7.88;7.07;;;;;;;11.76;82.20;99915.72;4910467;29;20256;-73
2022/10/01 07:58:02;;;;;;;7.65;6.95;;;;;;;11.84;81.96;99912.91;4906862;29;20063;-73
2022/10/01 08:00:29;;;;;;;7.28;6.40;;;;;;;11.91;81.92;99913.69;4911891;29;20502;-73
2022/10/01 08:02:55;;;;;;;6.63;6.03;;;;;;;12.00;81.84;99906.44;4910520;29;20040;-73
2022/10/01 08:05:23;;;;;;;6.85;5.35;;;;;;;12.05;81.36;99906.31;4910317;29;20062;-73
2022/10/01 08:07:49;;;;;;;7.65;6.53;;;;;;;12.04;80.28;99899.28;4910094;29;20036;-73
2022/10/01 08:10:16;;;;;;;7.50;6.70;;;;;;;12.10;80.80;99887.69;4913390;29;20032;-73
2022/10/01 08:12:42;;;;;;;8.73;6.95;;;;;;;12.09;79.67;99881.53;4909262;29;20044;-73
2022/10/01 08:15:14;;;;;;;6.82;6.15;;;;;;;12.18;79.75;99876.06;4909774;29;20048;-73
2022/10/01 08:17:40;;;;;;;7.90;6.13;;;;;;;12.30;79.68;99876.66;4907568;29;20559;-74
2022/10/01 08:20:07;;;;;;;6.45;5.85;;;;;;;12.34;78.36;99865.09;4907011;29;20070;-73
2022/10/01 08:22:33;;;;;;;6.50;5.90;;;;;;;12.41;78.97;99866.69;4909243;29;20042;-73
2022/10/01 08:24:58;;;;;;;10.15;5.75;;;;;;;12.45;78.44;99861.28;4925342;29;20127;-73
2022/10/01 08:27:24;;;;;;;8.63;6.88;;;;;;;12.53;78.25;99861.09;4907452;29;20091;-74
2022/10/01 08:29:50;;;;;;;7.57;5.85;;;;;;;12.57;77.42;99862.75;4907098;29;20040;-73
2022/10/01 08:32:15;;;;;;;7.05;6.43;;;;;;;12.64;77.59;99864.34;4910291;29;20039;-72
2022/10/01 08:34:40;;;;;;;6.95;6.22;;;;;;;12.70;76.21;99858.00;4909787;29;20067;-73
2022/10/01 08:37:06;;;;;;;6.88;6.28;;;;;;;12.72;75.97;99854.41;4906045;29;20024;-73
2022/10/01 08:39:31;;;;;;;6.85;6.25;;;;;;;12.84;75.73;99861.19;4912060;29;20044;-73
2022/10/01 08:42:11;;;;;;;7.32;6.45;;;;;;;12.92;75.60;99853.91;4909075;29;20055;-73
2022/10/01 08:44:44;;;;;;;7.18;6.50;;;;;;;12.99;74.75;99848.44;4910826;29;20376;-73
2022/10/01 08:47:22;;;;;;;7.10;6.40;;;;;;;13.03;74.41;99845.69;4908657;29;20044;-73
2022/10/01 08:49:52;;;;;;;6.85;6.25;;;;;;;13.23;74.08;99846.91;4913802;29;20044;-73
2022/10/01 08:52:35;;;;;;;6.82;6.20;;;;;;;13.32;73.50;99842.25;4906211;29;20092;-73
2022/10/01 08:55:06;;;;;;;7.80;6.53;;;;;;;13.42;72.46;99848.16;4907792;29;20538;-74
2022/10/01 08:57:40;;;;;;;8.27;6.53;;;;;;;13.46;71.78;99836.53;4910446;29;20047;-74
2022/10/01 09:00:12;;;;;;;8.90;6.80;;;;;;;13.65;71.96;99828.03;4909629;29;20076;-73
2022/10/01 09:02:39;;;;;;;8.38;7.53;;;;;;;13.74;71.16;99822.47;4908002;29;20051;-73
2022/10/01 09:05:16;;;;;;;6.63;6.03;;;;;;;13.87;71.74;99821.19;4927749;29;20044;-73
2022/10/01 09:07:53;;;;;;;7.32;6.72;;;;;;;13.74;70.56;99814.53;4906870;29;20044;-73
2022/10/01 09:10:41;;;;;;;6.85;6.25;;;;;;;13.74;71.56;99823.34;4910742;29;20818;-73
2022/10/01 09:13:18;;;;;;;7.25;5.97;;;;;;;13.81;70.85;99816.06;4912835;29;20047;-74
2022/10/01 09:15:57;;;;;;;7.32;6.63;;;;;;;13.97;70.86;99819.13;4907470;29;20064;-73
2022/10/01 09:19:00;;;;;;;7.32;6.63;;;;;;;14.08;70.08;99816.13;4908428;29;20039;-73
2022/10/01 09:22:06;;;;;;;8.13;6.15;;;;;;;14.14;70.52;99808.81;4909647;29;20036;-73
2022/10/01 09:24:54;;;;;;;6.85;6.28;;;;;;;14.12;70.11;99805.38;4910246;29;20143;-73
2022/10/01 09:27:24;;;;;;;5.95;5.43;;;;;;;14.03;71.30;99793.25;4910492;29;20044;-73
2022/10/01 09:29:55;;;;;;;7.20;6.50;;;;;;;14.11;70.91;99787.69;4911946;29;20047;-73
2022/10/01 09:32:35;;;;;;;6.15;5.53;;;;;;;14.03;71.20;99781.78;4906881;29;20119;-73
2022/10/01 09:35:14;;;;;;;7.72;6.00;;;;;;;14.00;70.86;99777.44;4908630;29;20048;-73
2022/10/01 09:37:55;;;;;;;7.10;6.45;;;;;;;14.12;70.19;99768.22;4912509;29;20036;-74
2022/10/01 09:40:48;;;;;;;7.10;6.50;;;;;;;14.18;70.72;99767.16;4908450;29;20044;-73
2022/10/01 09:43:21;;;;;;;7.05;6.32;;;;;;;14.27;71.31;99772.13;4908983;29;20048;-73
2022/10/01 09:45:48;;;;;;;6.63;6.03;;;;;;;14.39;71.00;99766.41;4905919;29;20123;-73
2022/10/01 09:48:48;;;;;;;6.57;5.95;;;;;;;14.40;70.60;99757.53;4909655;29;20036;-74
2022/10/01 09:51:18;;;;;;;6.03;5.53;;;;;;;14.27;70.26;99752.69;4906394;29;20533;-74
2022/10/01 09:54:02;;;;;;;6.78;6.07;;;;;;;14.21;71.54;99748.47;4913185;29;20119;-73
2022/10/01 09:56:32;;;;;;;7.65;6.18;;;;;;;14.20;70.53;99725.47;4922633;29;20059;-74
2022/10/01 09:59:04;;;;;;;6.18;5.65;;;;;;;14.18;70.08;99727.34;4908798;29;20102;-73
2022/10/01 10:01:43;;;;;;;7.07;5.78;;;;;;;14.02;70.62;99733.16;4909666;29;20071;-73
2022/10/01 10:04:09;;;;;;;6.25;4.85;;;;;;;13.96;70.43;99730.72;4908564;29;20036;-74
2022/10/01 10:06:34;;;;;;;6.05;5.55;;;;;;;13.92;69.43;99737.03;4906417;29;20421;-73
2022/10/01 10:09:00;;;;;;;6.10;5.50;;;;;;;13.93;69.84;99728.13;4911856;29;20095;-74
2022/10/01 10:11:28;;;;;;;6.55;5.97;;;;;;;13.85;71.14;99724.88;4910850;29;20050;-74
2022/10/01 10:14:03;;;;;;;6.35;5.78;;;;;;;13.90;72.11;99722.06;4909190;29;20036;-74
2022/10/01 10:16:33;;;;;;;5.85;5.35;;;;;;;13.98;71.97;99728.00;4907813;29;20046;-73
2022/10/01 10:19:02;;;;;;;6.35;5.78;;;;;;;13.88;71.85;99730.06;4911184;29;20131;-74
2022/10/01 10:21:35;;;;;;;7.38;5.43;;;;;;;13.79;71.59;99730.38;4905289;29;20048;-74
2022/10/01 10:24:18;;;;;;;7.88;7.18;;;;;;;13.59;72.83;99729.22;4907573;29;20082;-74
2022/10/01 10:26:51;;;;;;;5.25;4.75;;;;;;;13.62;73.96;99727.38;4902719;29;20047;-74
2022/10/01 10:29:26;;;;;;;6.57;5.97;;;;;;;13.40;75.41;99728.06;4903986;29;20052;-74
2022/10/01 10:31:54;;;;;;;4.70;4.28;;;;;;;13.31;75.77;99733.66;4904269;29;20037;-73
2022/10/01 10:34:31;;;;;;;5.47;4.97;;;;;;;13.24;76.31;99737.34;4908052;29;20040;-73
2022/10/01 10:36:59;;;;;;;6.38;5.78;;;;;;;13.03;76.89;99741.50;4903533;29;20069;-74
2022/10/01 10:39:28;;;;;;;6.25;4.97;;;;;;;13.01;78.08;99746.84;4910118;29;20514;-73
2022/10/01 10:41:55;;;;;;;6.68;5.00;;;;;;;12.88;78.83;99738.38;4906184;29;20040;-73
2022/10/01 10:44:23;;;;;;;5.85;4.78;;;;;;;12.79;81.06;99751.00;4909815;29;20036;-73
2022/10/01 10:46:50;;;;;;;5.18;4.68;;;;;;;12.69;81.92;99756.53;4910581;29;20051;-73
2022/10/01 10:49:25;;;;;;;5.20;4.70;;;;;;;12.53;84.83;99755.22;4908768;29;20108;-73
2022/10/01 10:51:54;;;;;;;5.35;4.85;;;;;;;12.31;88.03;99752.25;4903561;29;20051;-73
2022/10/01 10:54:37;;;;;;;6.07;4.30;;;;;;;12.18;88.50;99762.31;4910032;29;20040;-74
2022/10/01 10:57:27;;;;;;;5.40;4.90;;;;;;;12.03;91.25;99760.91;4905226;29;20040;-74
2022/10/01 10:59:59;;;;;;;6.60;5.18;;;;;;;11.95;91.99;99772.56;4907968;29;20044;-74
2022/10/01 11:02:30;;;;;;;5.40;4.50;;;;;;;11.84;93.36;99768.38;4913222;29;20055;-74
2022/10/01 11:05:15;;;;;;;6.20;5.13;;;;;;;11.79;94.62;99764.09;4910179;29;20051;-73
2022/10/01 11:07:44;;;;;;;6.85;4.53;;;;;;;11.71;95.80;99756.34;4900825;29;20127;-73
2022/10/01 11:10:27;;;;;;;6.70;4.45;;;;;;;11.76;96.12;99764.16;4910479;29;20040;-74
2022/10/01 11:13:14;;;;;;;7.15;4.55;;;;;;;11.75;96.66;99755.34;4910002;29;20068;-73
2022/10/01 11:15:50;;;;;;;5.97;4.20;;;;;;;11.73;96.39;99749.22;4911557;29;20384;-74
2022/10/01 11:18:31;;;;;;;7.18;4.32;;;;;;;11.72;96.57;99749.28;4911393;29;20119;-73
2022/10/01 11:21:16;;;;;;;5.50;4.70;;;;;;;11.69;98.95;99739.66;4905422;29;20045;-74
2022/10/01 11:23:57;;;;;;;7.32;5.63;;;;;;;11.64;100.00;99733.59;4904635;29;20044;-74
2022/10/01 11:26:35;;;;;;;6.50;5.00;;;;;;;11.77;99.23;99737.69;4907043;29;20048;-73
2022/10/01 11:29:12;;;;;;;5.20;4.70;;;;;;;11.80;98.85;99727.03;4910445;29;20284;-74
2022/10/01 11:31:49;;;;;;;4.43;3.92;;;;;;;11.85;97.12;99727.81;4908146;29;20048;-74
2022/10/01 11:34:33;;;;;;;5.88;4.40;;;;;;;11.82;98.69;99722.59;4910982;29;20188;-73
2022/10/01 11:37:16;;;;;;;4.90;4.40;;;;;;;11.81;99.57;99722.63;4915782;29;20079;-75
2022/10/01 11:39:44;;;;;;;6.18;4.22;;;;;;;11.82;99.04;99722.59;4910309;29;20044;-74
2022/10/01 11:42:15;;;;;;;4.72;4.20;;;;;;;11.93;98.29;99727.66;4912048;29;20044;-74
2022/10/01 11:45:00;;;;;;;6.88;4.47;;;;;;;11.95;97.71;99730.28;4914849;29;20044;-74